Time;durP1;ratioP1;P1;durP2;ratioP2;P2;SDS_P1;SDS_P2;PMS_P1;PMS_P2;Temp;Humidity;BMP_temperature;BMP_pressure;BME280_temperature;BME280_humidity;BME280_pressure;Samples;Min_cycle;Max_cycle;Signal;HPM_P1;HPM_P2
2022/05/24 00:00:20;;;;;;;;;1.00;1.00;;;;;22.14;53.73;100081.16;5070769;28;9443;-74
2022/05/24 00:02:45;;;;;;;;;1.00;1.00;;;;;22.14;53.60;100074.97;5070221;28;11428;-74
2022/05/24 00:05:11;;;;;;;;;1.00;1.00;;;;;22.14;53.52;100073.16;5069383;28;9447;-75
2022/05/24 00:07:39;;;;;;;;;1.00;1.00;;;;;22.14;53.70;100061.66;5070737;28;8777;-74
2022/05/24 00:10:08;;;;;;;;;1.00;1.00;;;;;22.12;53.88;100061.72;5076497;28;8831;-74
2022/05/24 00:12:34;;;;;;;;;0.33;0.33;;;;;22.11;53.82;100056.47;5090296;28;9494;-74
2022/05/24 00:17:47;;;;;;;;;0.67;0.67;;;;;22.10;53.58;100049.41;5070859;28;8770;-74
2022/05/24 00:20:13;;;;;;;;;1.00;0.67;;;;;22.10;53.61;100050.28;5070642;28;9408;-74
2022/05/24 00:22:42;;;;;;;;;1.00;1.00;;;;;22.09;53.63;100045.88;5070906;28;9250;-74
2022/05/24 00:25:07;;;;;;;;;1.00;1.00;;;;;22.10;54.00;100050.28;5070505;28;9466;-74
2022/05/24 00:27:33;;;;;;;;;0.00;0.00;;;;;22.11;53.42;100051.16;5069849;28;9411;-74
2022/05/24 00:29:58;;;;;;;;;1.50;1.50;;;;;22.10;53.82;100057.38;5070006;28;8806;-75
2022/05/24 00:32:23;;;;;;;;;0.00;0.00;;;;;22.09;53.96;100051.19;5070054;28;8781;-74
2022/05/24 00:34:49;;;;;;;;;1.00;1.00;;;;;22.09;53.75;100059.19;5070206;28;8864;-74
2022/05/24 00:37:17;;;;;;;;;1.00;1.00;;;;;22.08;53.44;100054.78;5070641;28;8796;-74
2022/05/24 00:39:47;;;;;;;;;0.00;0.00;;;;;22.08;53.51;100053.94;5070136;28;8817;-74
2022/05/24 00:42:18;;;;;;;;;1.00;1.00;;;;;22.08;53.84;100054.78;5070384;28;10067;-75
2022/05/24 00:44:55;;;;;;;;;1.00;1.00;;;;;22.08;53.84;100051.28;5069857;28;9466;-74
2022/05/24 00:47:42;;;;;;;;;0.25;0.25;;;;;22.08;53.97;100057.44;5069895;28;9306;-74
2022/05/24 00:50:13;;;;;;;;;0.00;0.00;;;;;22.07;53.82;100042.44;5069817;28;9451;-74
2022/05/24 00:52:42;;;;;;;;;0.67;0.67;;;;;22.07;53.67;100025.59;5070233;28;9317;-74
2022/05/24 00:55:11;;;;;;;;;1.00;1.00;;;;;22.07;53.75;100025.59;5069530;28;9300;-74
2022/05/24 00:57:44;;;;;;;;;1.00;1.00;;;;;22.06;53.70;100024.75;5070097;28;9313;-74
2022/05/24 01:00:15;;;;;;;;;1.00;1.00;;;;;22.07;53.49;100020.28;5070239;28;9444;-74
2022/05/24 01:02:42;;;;;;;;;0.50;0.50;;;;;22.07;53.72;100028.28;5069259;28;9344;-74
2022/05/24 01:05:13;;;;;;;;;0.00;0.00;;;;;22.08;54.21;100037.97;5069886;28;9617;-74
2022/05/24 01:07:38;;;;;;;;;1.00;1.00;;;;;22.08;53.92;100049.47;5069306;28;9363;-74
2022/05/24 01:10:15;;;;;;;;;2.00;1.00;;;;;22.08;53.58;100056.59;5075160;28;9677;-74
2022/05/24 01:12:53;;;;;;;;;2.00;1.00;;;;;22.07;53.76;100061.03;5090292;28;9546;-74
2022/05/24 01:15:20;;;;;;;;;0.50;0.50;;;;;22.08;53.98;100059.25;5070784;28;9443;-74
2022/05/24 01:17:48;;;;;;;;;0.50;0.50;;;;;22.08;54.13;100054.78;5069220;28;9397;-74
2022/05/24 01:20:13;;;;;;;;;1.50;0.00;;;;;22.07;54.05;100052.19;5069728;28;9470;-74
2022/05/24 01:23:08;;;;;;;;;1.00;1.00;;;;;22.06;53.98;100061.97;5068959;28;9519;-75
2022/05/24 01:25:46;;;;;;;;;1.00;1.00;;;;;22.07;53.72;100066.34;5069092;28;9494;-74
2022/05/24 01:28:19;;;;;;;;;1.00;1.00;;;;;22.07;53.52;100053.06;5069781;28;9473;-74
2022/05/24 01:30:45;;;;;;;;;1.00;1.00;;;;;22.05;53.79;100049.56;5068542;28;9273;-74
2022/05/24 01:36:09;;;;;;;;;1.00;1.00;;;;;22.04;53.98;100052.31;5068614;28;8754;-74
2022/05/24 01:38:35;;;;;;;;;1.00;1.00;;;;;22.04;53.77;100050.53;5069149;28;9420;-74
2022/05/24 01:41:01;;;;;;;;;1.00;0.33;;;;;22.04;53.95;100055.84;5070229;28;10098;-76
2022/05/24 01:43:28;;;;;;;;;1.33;1.33;;;;;22.04;54.07;100057.63;5072788;28;11490;-76
2022/05/24 01:45:59;;;;;;;;;1.00;1.00;;;;;22.06;53.53;100061.09;5072909;28;9400;-74
2022/05/24 01:48:32;;;;;;;;;0.75;0.00;;;;;22.03;53.95;100051.44;5073761;28;9481;-74
2022/05/24 01:51:01;;;;;;;;;1.50;1.50;;;;;22.04;53.47;100053.19;5073040;28;9373;-74
2022/05/24 01:53:45;;;;;;;;;1.00;0.00;;;;;22.04;53.75;100044.34;5073695;28;9314;-74
2022/05/24 01:56:15;;;;;;;;;1.00;1.00;;;;;22.05;54.01;100043.41;5073805;28;9250;-74
2022/05/24 01:58:48;;;;;;;;;1.00;1.00;;;;;22.04;53.80;100036.38;5072782;28;9282;-74
2022/05/24 02:01:41;;;;;;;;;0.00;0.00;;;;;22.04;54.06;100039.03;5073575;28;9315;-74
2022/05/24 02:04:06;;;;;;;;;0.00;0.00;;;;;22.04;53.93;100033.72;5072749;28;9255;-74
2022/05/24 02:06:32;;;;;;;;;1.50;1.50;;;;;22.03;53.75;100031.97;5073366;28;9339;-74
2022/05/24 02:08:57;;;;;;;;;1.00;1.00;;;;;22.03;53.89;100039.94;5073065;28;9051;-74
2022/05/24 02:11:34;;;;;;;;;1.00;1.00;;;;;22.03;53.56;100037.28;5089528;28;8792;-74
2022/05/24 02:14:11;;;;;;;;;1.00;1.00;;;;;22.04;53.72;100044.34;5084815;28;8869;-73
2022/05/24 02:16:43;;;;;;;;;0.33;0.33;;;;;22.02;53.82;100044.38;5072986;28;9379;-74
2022/05/24 02:19:11;;;;;;;;;2.25;2.00;;;;;22.02;54.07;100041.72;5072582;28;9429;-74
2022/05/24 02:21:40;;;;;;;;;0.00;0.00;;;;;22.02;53.83;100046.16;5072727;28;9482;-74
2022/05/24 02:24:19;;;;;;;;;1.00;1.00;;;;;22.03;53.54;100053.22;5072810;28;9436;-75
2022/05/24 02:26:45;;;;;;;;;0.50;0.50;;;;;22.03;53.62;100050.56;5071832;28;9434;-75
2022/05/24 02:29:11;;;;;;;;;0.00;0.00;;;;;22.02;53.81;100044.38;5072903;28;10081;-75
2022/05/24 02:31:36;;;;;;;;;1.50;1.00;;;;;22.03;53.65;100037.28;5073205;28;9347;-74
2022/05/24 02:34:02;;;;;;;;;1.00;1.00;;;;;22.02;53.79;100035.53;5072209;28;8778;-75
2022/05/24 02:36:27;;;;;;;;;0.50;0.00;;;;;22.02;53.72;100032.88;5072763;28;8778;-75
2022/05/24 02:38:52;;;;;;;;;2.00;1.00;;;;;22.02;53.75;100027.56;5072841;28;8813;-75
2022/05/24 02:41:31;;;;;;;;;0.75;0.75;;;;;22.01;53.87;100025.81;5072153;28;8766;-74
2022/05/24 02:44:02;;;;;;;;;2.75;2.00;;;;;22.02;53.48;100016.94;5072874;28;8782;-75
2022/05/24 02:46:30;;;;;;;;;1.00;1.00;;;;;22.00;53.90;100017.00;5072555;28;9397;-75
2022/05/24 02:48:56;;;;;;;;;2.75;1.00;;;;;22.00;53.69;100025.00;5072586;28;9390;-75
2022/05/24 02:51:22;;;;;;;;;1.00;1.00;;;;;22.01;53.77;100024.03;5072668;28;9307;-74
2022/05/24 02:53:47;;;;;;;;;1.00;1.00;;;;;22.00;53.82;100029.44;5071355;28;8766;-75
2022/05/24 02:56:13;;;;;;;;;2.00;2.00;;;;;22.01;53.57;100036.47;5072641;28;8773;-75
2022/05/24 02:58:39;;;;;;;;;1.00;1.00;;;;;22.00;53.84;100042.72;5072747;28;8921;-75
2022/05/24 03:01:25;;;;;;;;;0.00;0.00;;;;;22.00;53.65;100037.41;5071820;28;9391;-75
2022/05/24 03:03:52;;;;;;;;;2.00;2.00;;;;;21.99;53.85;100036.53;5072171;28;9385;-74
2022/05/24 03:06:19;;;;;;;;;2.00;2.00;;;;;21.99;53.79;100038.31;5072247;28;9478;-74
2022/05/24 03:14:14;;;;;;;;;2.00;2.00;;;;;21.99;53.84;100035.66;5092196;28;9486;-74
2022/05/24 03:14:16;;;;;;;;;2.00;1.25;;;;;21.99;53.84;100038.31;5091644;28;9528;-74
2022/05/24 03:16:45;;;;;;;;;1.00;1.00;;;;;21.99;53.82;100043.63;5076867;28;9418;-74
2022/05/24 03:19:11;;;;;;;;;2.00;2.00;;;;;21.98;53.76;100036.59;5072364;28;9449;-74
2022/05/24 03:21:36;;;;;;;;;1.00;0.50;;;;;21.98;53.62;100031.25;5071498;28;9514;-74
2022/05/24 03:24:01;;;;;;;;;1.00;1.00;;;;;21.98;53.64;100041.91;5072109;28;8782;-74
2022/05/24 03:26:27;;;;;;;;;2.00;2.00;;;;;21.97;54.06;100041.03;5082030;28;9475;-75
2022/05/24 03:28:52;;;;;;;;;2.25;1.00;;;;;21.98;53.84;100047.22;5074859;28;8794;-75
2022/05/24 03:31:17;;;;;;;;;2.00;1.00;;;;;21.97;53.93;100061.44;5072077;28;8766;-74
2022/05/24 03:33:43;;;;;;;;;1.75;1.75;;;;;21.96;53.92;100067.69;5071015;28;8804;-74
2022/05/24 03:36:08;;;;;;;;;1.00;1.00;;;;;21.96;54.04;100059.72;5071149;28;8806;-74
2022/05/24 03:38:33;;;;;;;;;1.00;1.00;;;;;21.97;53.57;100072.91;5071294;28;8837;-74
2022/05/24 03:40:59;;;;;;;;;1.25;1.00;;;;;21.96;53.84;100081.84;5071462;28;8817;-74
2022/05/24 03:43:25;;;;;;;;;1.25;1.25;;;;;21.95;53.78;100074.78;5074134;28;8786;-74
2022/05/24 03:46:01;;;;;;;;;1.00;1.00;;;;;21.95;53.68;100073.91;5071585;28;8790;-74
2022/05/24 03:48:26;;;;;;;;;1.00;1.00;;;;;21.94;53.73;100080.16;5071662;28;9385;-74
2022/05/24 03:50:52;;;;;;;;;1.75;0.50;;;;;21.95;53.71;100087.22;5070359;28;10324;-74
2022/05/24 03:53:17;;;;;;;;;1.75;1.00;;;;;21.93;53.79;100091.72;5071339;28;8768;-74
2022/05/24 03:55:42;;;;;;;;;1.50;1.50;;;;;21.95;53.74;100095.19;5071131;28;8887;-74
2022/05/24 03:58:07;;;;;;;;;1.75;1.75;;;;;21.94;53.82;100098.75;5070315;28;8818;-75
2022/05/24 04:00:36;;;;;;;;;1.00;1.00;;;;;21.95;53.40;100108.47;5071175;28;8774;-74
2022/05/24 04:03:02;;;;;;;;;1.75;1.75;;;;;21.93;53.62;100119.16;5070693;28;8794;-74
2022/05/24 04:05:29;;;;;;;;;1.00;1.00;;;;;21.93;53.54;100118.31;5069412;28;9458;-74
2022/05/24 04:07:55;;;;;;;;;2.00;2.00;;;;;21.93;53.67;100131.59;5070909;28;9445;-74
2022/05/24 04:10:21;;;;;;;;;1.50;1.50;;;;;21.91;53.84;100128.97;5078797;28;9523;-74
2022/05/24 04:12:47;;;;;;;;;1.00;0.50;;;;;21.91;53.68;100118.34;5090213;28;8772;-74
2022/05/24 04:15:13;;;;;;;;;2.00;2.00;;;;;21.93;53.63;100120.97;5072769;28;8956;-75
2022/05/24 04:17:38;;;;;;;;;1.00;1.00;;;;;21.92;53.70;100124.53;5070180;28;9556;-75
2022/05/24 04:20:07;;;;;;;;;2.00;2.00;;;;;21.92;53.74;100119.22;5070206;28;9332;-74
2022/05/24 04:22:33;;;;;;;;;2.00;2.00;;;;;21.90;53.76;100119.22;5070744;28;8762;-75
2022/05/24 04:24:59;;;;;;;;;2.00;1.75;;;;;21.91;53.66;100104.19;5070056;28;9496;-75
2022/05/24 04:27:24;;;;;;;;;2.00;2.00;;;;;21.90;53.82;100113.91;5070557;28;9517;-75
2022/05/24 04:29:52;;;;;;;;;1.00;1.00;;;;;21.91;53.83;100112.16;5070369;28;8782;-74
2022/05/24 04:32:17;;;;;;;;;1.00;1.00;;;;;21.90;54.05;100116.56;5070091;28;8800;-75
2022/05/24 04:34:42;;;;;;;;;0.25;0.25;;;;;21.85;53.48;100099.94;5070141;28;9407;-75
2022/05/24 04:37:08;;;;;;;;;1.75;1.75;;;;;21.91;53.84;100109.50;5070033;28;8900;-75
2022/05/24 04:39:34;;;;;;;;;2.00;2.00;;;;;21.89;53.90;100114.00;5069662;28;8861;-75
2022/05/24 04:44:43;;;;;;;;;1.00;1.00;;;;;21.90;53.51;100116.56;5070226;28;8755;-75
2022/05/24 04:47:08;;;;;;;;;1.00;1.00;;;;;21.89;53.64;100109.53;5070040;28;9450;-75
2022/05/24 04:49:39;;;;;;;;;0.75;0.75;;;;;21.89;53.69;100112.19;5070387;28;9672;-76
2022/05/24 04:52:10;;;;;;;;;1.00;1.00;;;;;21.89;53.51;100114.84;5069917;28;8773;-76
2022/05/24 04:54:38;;;;;;;;;0.50;0.50;;;;;21.90;53.36;100105.06;5069661;28;9472;-76
2022/05/24 04:57:04;;;;;;;;;0.00;0.00;;;;;21.88;53.26;100098.94;5070023;28;9476;-76
2022/05/24 04:59:29;;;;;;;;;0.75;0.75;;;;;21.89;53.49;100111.34;5069859;28;9389;-75
2022/05/24 05:01:54;;;;;;;;;1.00;1.00;;;;;21.89;53.29;100117.53;5069196;28;8774;-75
2022/05/24 05:04:20;;;;;;;;;0.67;0.00;;;;;21.89;53.39;100124.63;5070266;28;8773;-75
2022/05/24 05:06:47;;;;;;;;;1.00;1.00;;;;;21.89;53.25;100136.13;5068750;28;8770;-74
2022/05/24 05:09:13;;;;;;;;;1.00;1.00;;;;;21.90;53.51;100129.00;5069592;28;9425;-74
2022/05/24 05:11:38;;;;;;;;;1.00;1.00;;;;;21.89;53.62;100136.13;5088386;28;9340;-74
2022/05/24 05:14:05;;;;;;;;;2.00;2.00;;;;;21.88;53.37;100139.69;5080089;28;9508;-74
2022/05/24 05:16:30;;;;;;;;;0.33;0.33;;;;;21.89;53.26;100143.22;5069266;28;8892;-74
2022/05/24 05:18:55;;;;;;;;;1.00;1.00;;;;;21.87;53.43;100151.25;5069273;28;9539;-75
2022/05/24 05:21:21;;;;;;;;;2.25;1.75;;;;;21.88;53.31;100166.28;5069066;28;8797;-75
2022/05/24 05:23:46;;;;;;;;;1.00;1.00;;;;;21.88;53.31;100162.75;5070202;28;8774;-75
2022/05/24 05:26:14;;;;;;;;;1.00;1.00;;;;;21.89;53.50;100170.69;5070666;28;8881;-74
2022/05/24 05:28:40;;;;;;;;;2.50;1.50;;;;;21.89;53.37;100169.81;5070273;28;8813;-74
2022/05/24 05:31:22;;;;;;;;;1.00;1.00;;;;;21.87;53.30;100168.97;5069196;28;9409;-74
2022/05/24 05:33:49;;;;;;;;;1.25;1.00;;;;;21.87;53.33;100161.88;5069497;28;9271;-74
2022/05/24 05:36:15;;;;;;;;;1.00;1.00;;;;;21.87;53.50;100164.53;5069177;28;9483;-74
2022/05/24 05:38:47;;;;;;;;;2.00;0.67;;;;;21.87;53.74;100176.94;5069656;28;9270;-75
2022/05/24 05:41:17;;;;;;;;;1.00;1.00;;;;;21.86;53.26;100175.22;5070076;28;8785;-75
2022/05/24 05:43:43;;;;;;;;;1.50;1.00;;;;;21.86;53.30;100181.38;5069227;28;9406;-75
2022/05/24 05:46:10;;;;;;;;;2.00;1.00;;;;;21.86;53.50;100181.38;5070009;28;10108;-75
2022/05/24 05:48:37;;;;;;;;;1.00;0.00;;;;;21.86;53.38;100184.03;5070241;28;8817;-75
2022/05/24 05:51:03;;;;;;;;;1.00;1.00;;;;;21.86;53.45;100183.22;5070115;28;9378;-75
2022/05/24 05:53:29;;;;;;;;;1.00;1.00;;;;;21.86;53.38;100185.88;5087818;28;9512;-75
2022/05/24 05:55:54;;;;;;;;;1.00;1.00;;;;;21.85;53.40;100186.78;5080312;28;9417;-75
2022/05/24 05:58:19;;;;;;;;;0.67;0.67;;;;;21.85;53.20;100192.97;5070563;28;8879;-75
2022/05/24 06:00:48;;;;;;;;;1.00;1.00;;;;;21.86;53.50;100196.50;5070628;28;8797;-75
2022/05/24 06:03:13;;;;;;;;;1.00;1.00;;;;;21.86;53.33;100197.34;5072449;28;8786;-75
2022/05/24 06:05:38;;;;;;;;;2.00;1.00;;;;;21.85;53.28;100203.59;5086320;28;9336;-75
2022/05/24 06:08:04;;;;;;;;;1.00;1.00;;;;;21.86;53.43;100205.31;5084741;28;8831;-76
2022/05/24 06:10:30;;;;;;;;;1.00;1.00;;;;;21.87;53.11;100204.41;5081558;28;8830;-75
2022/05/24 06:12:59;;;;;;;;;0.33;0.33;;;;;21.88;53.29;100213.25;5089676;28;8783;-75
2022/05/24 06:15:25;;;;;;;;;1.00;1.00;;;;;21.86;53.36;100221.25;5069746;28;9308;-76
2022/05/24 06:17:51;;;;;;;;;1.00;1.00;;;;;21.87;53.19;100222.13;5068929;28;9311;-75
2022/05/24 06:20:19;;;;;;;;;0.00;0.00;;;;;21.87;53.18;100227.44;5068833;28;9305;-75
2022/05/24 06:22:45;;;;;;;;;1.00;1.00;;;;;21.86;53.37;100228.38;5068815;28;8912;-76
2022/05/24 06:25:10;;;;;;;;;0.00;0.00;;;;;21.85;53.22;100231.97;5068326;28;9525;-77
2022/05/24 06:27:36;;;;;;;;;1.00;1.00;;;;;21.86;52.98;100236.34;5070429;28;8880;-76
2022/05/24 06:30:02;;;;;;;;;0.67;0.67;;;;;21.87;53.32;100240.72;5073583;28;9586;-77
2022/05/24 06:32:27;;;;;;;;;1.00;1.00;;;;;21.85;53.04;100243.47;5072699;28;8797;-77
2022/05/24 06:34:53;;;;;;;;;1.00;1.00;;;;;21.87;53.12;100252.22;5073361;28;9490;-76
2022/05/24 06:37:21;;;;;;;;;1.00;1.00;;;;;21.86;53.10;100253.16;5073995;28;9522;-76
2022/05/24 06:39:47;;;;;;;;;1.00;1.00;;;;;21.87;53.03;100251.38;5073032;28;8802;-75
2022/05/24 06:42:12;;;;;;;;;0.00;0.00;;;;;21.87;53.17;100254.03;5074097;28;9314;-75
2022/05/24 06:44:38;;;;;;;;;1.00;1.00;;;;;21.88;53.09;100261.09;5074154;28;9250;-76
2022/05/24 06:47:04;;;;;;;;;1.50;1.00;;;;;21.87;53.11;100268.19;5072546;28;8813;-75
2022/05/24 06:49:29;;;;;;;;;0.25;0.25;;;;;21.86;52.80;100273.56;5073036;28;8844;-76
2022/05/24 06:51:54;;;;;;;;;0.00;0.00;;;;;21.86;53.01;100266.44;5072574;28;9397;-76
2022/05/24 06:54:20;;;;;;;;;1.00;1.00;;;;;21.86;53.13;100273.56;5071619;28;8785;-76
2022/05/24 06:56:45;;;;;;;;;1.00;1.00;;;;;21.86;53.40;100277.06;5072584;28;8798;-76
2022/05/24 07:04:38;;;;;;;;;1.00;1.00;;;;;21.86;53.11;100284.19;5072808;28;9371;-76
2022/05/24 07:07:04;;;;;;;;;1.00;1.00;;;;;21.86;53.02;100286.84;5071684;28;9440;-77
2022/05/24 07:09:31;;;;;;;;;2.00;1.00;;;;;21.85;52.93;100280.66;5072884;28;8790;-76
2022/05/24 07:11:57;;;;;;;;;1.00;1.00;;;;;21.86;53.01;100284.19;5091864;28;9482;-76
2022/05/24 07:14:22;;;;;;;;;1.00;1.00;;;;;21.85;53.32;100282.44;5080083;28;9605;-76
2022/05/24 07:16:47;;;;;;;;;1.75;1.75;;;;;21.85;53.53;100285.97;5071964;28;8797;-76
2022/05/24 07:19:12;;;;;;;;;0.50;0.50;;;;;21.86;52.92;100287.69;5072255;28;8821;-76
2022/05/24 07:21:38;;;;;;;;;0.67;0.67;;;;;21.88;53.00;100301.81;5071332;28;8781;-76
2022/05/24 07:24:03;;;;;;;;;0.00;0.00;;;;;21.91;53.00;100307.06;5071553;28;8798;-76
2022/05/24 07:26:29;;;;;;;;;1.00;1.00;;;;;21.95;52.89;100306.03;5071599;28;8802;-76
2022/05/24 07:28:54;;;;;;;;;1.00;1.00;;;;;21.96;52.87;100302.47;5070635;28;8785;-76
2022/05/24 07:31:19;;;;;;;;;1.50;1.50;;;;;21.98;52.82;100311.25;5071334;28;8798;-76
2022/05/24 07:33:44;;;;;;;;;1.00;1.00;;;;;22.01;52.74;100321.78;5071305;28;8786;-77
2022/05/24 07:36:10;;;;;;;;;1.00;1.00;;;;;22.01;52.75;100327.09;5071092;28;8770;-76
2022/05/24 07:38:35;;;;;;;;;1.67;1.67;;;;;22.00;52.70;100322.72;5071378;28;9570;-77
2022/05/24 07:46:28;;;;;;;;;1.00;1.00;;;;;22.01;52.64;100329.75;5071265;28;9288;-76
2022/05/24 07:48:54;;;;;;;;;1.00;1.00;;;;;22.03;52.49;100333.25;5070492;28;9394;-77
2022/05/24 07:51:19;;;;;;;;;0.00;0.00;;;;;22.03;52.60;100337.69;5070804;28;8806;-77
2022/05/24 07:53:45;;;;;;;;;1.00;1.00;;;;;22.04;52.60;100347.41;5070840;28;8793;-76
2022/05/24 07:56:10;;;;;;;;;0.00;0.00;;;;;22.05;52.73;100352.66;5070311;28;8797;-77
2022/05/24 07:58:36;;;;;;;;;2.00;2.00;;;;;22.06;52.61;100345.56;5070789;28;8828;-76
2022/05/24 08:01:02;;;;;;;;;0.33;0.33;;;;;22.06;52.87;100350.88;5070875;28;8782;-76
2022/05/24 08:03:28;;;;;;;;;0.00;0.00;;;;;22.07;52.46;100353.50;5070555;28;8851;-77
2022/05/24 08:05:54;;;;;;;;;1.00;1.00;;;;;22.08;52.65;100352.56;5070940;28;9336;-76
2022/05/24 08:08:19;;;;;;;;;0.00;0.00;;;;;22.09;52.31;100353.41;5070974;28;8818;-76
2022/05/24 08:10:45;;;;;;;;;2.33;2.00;;;;;22.10;52.65;100365.81;5081602;28;8825;-76
2022/05/24 08:13:14;;;;;;;;;0.00;0.00;;;;;22.11;52.31;100341.84;5089792;28;8906;-76
2022/05/24 08:15:40;;;;;;;;;0.00;0.00;;;;;22.10;52.83;100350.72;5070705;28;9467;-76
2022/05/24 08:18:09;;;;;;;;;1.75;1.00;;;;;22.08;52.53;100346.38;5068557;28;9406;-77
2022/05/24 08:20:35;;;;;;;;;0.00;0.00;;;;;22.12;52.64;100355.97;5069817;28;10176;-77
2022/05/24 08:23:01;;;;;;;;;2.25;1.00;;;;;22.11;52.63;100368.44;5070113;28;9496;-76
2022/05/24 08:25:28;;;;;;;;;1.00;1.00;;;;;22.10;52.50;100377.31;5069808;28;8813;-76
2022/05/24 08:27:54;;;;;;;;;0.00;0.00;;;;;22.09;52.70;100374.69;5070246;28;9248;-76
2022/05/24 08:30:20;;;;;;;;;1.00;1.00;;;;;22.08;52.67;100376.47;5069862;28;9357;-75
2022/05/24 08:32:48;;;;;;;;;0.00;0.00;;;;;22.06;52.75;100380.13;5080852;28;9495;-75
2022/05/24 08:35:17;;;;;;;;;0.00;0.00;;;;;22.07;52.90;100384.53;5073936;28;8818;-76
2022/05/24 08:37:43;;;;;;;;;1.00;1.00;;;;;22.05;52.85;100397.84;5072141;28;9363;-75
2022/05/24 08:40:15;;;;;;;;;0.00;0.00;;;;;22.06;52.92;100398.72;5070035;28;9338;-75
2022/05/24 08:42:55;;;;;;;;;0.00;0.00;;;;;22.04;53.12;100397.94;5070688;28;9320;-75
2022/05/24 08:48:26;;;;;;;;;1.00;1.00;;;;;22.08;52.76;100402.22;5057148;28;9263;-74
2022/05/24 08:51:00;;;;;;;;;2.00;2.00;;;;;22.13;57.33;100405.59;5069818;28;9351;-74
2022/05/24 08:53:35;;;;;;;;;4.00;3.00;;;;;22.20;58.04;100407.13;5069747;28;9320;-74
2022/05/24 08:56:09;;;;;;;;;2.75;1.50;;;;;22.24;57.08;100415.88;5069804;28;9539;-74
2022/05/24 08:58:40;;;;;;;;;2.00;2.00;;;;;22.33;60.16;100421.75;5069806;28;9432;-74
2022/05/24 09:01:14;;;;;;;;;2.00;2.00;;;;;22.38;58.08;100414.47;5068949;28;9397;-73
2022/05/24 09:03:42;;;;;;;;;3.25;2.00;;;;;22.45;59.37;100436.44;5070034;28;9494;-74
2022/05/24 09:06:18;;;;;;;;;2.25;2.25;;;;;22.53;61.23;100429.91;5069151;28;9579;-74
2022/05/24 09:09:19;;;;;;;;;3.50;2.25;;;;;22.66;65.70;100449.00;5069217;28;9474;-72
2022/05/24 09:11:56;;;;;;;;;4.00;3.25;;;;;22.69;66.07;100453.38;5033387;28;9540;-72
2022/05/24 09:14:41;;;;;;;;;2.00;2.00;;;;;22.74;66.91;100462.09;5079823;28;9506;-74
2022/05/24 09:17:28;;;;;;;;;6.25;4.00;;;;;22.70;66.78;100465.78;5089531;28;9525;-71
2022/05/24 09:19:53;;;;;;;;;4.50;3.75;;;;;22.67;66.30;100464.06;5089411;28;9500;-71
2022/05/24 09:22:21;;;;;;;;;2.50;2.00;;;;;22.67;66.30;100464.06;5089810;28;9482;-73
2022/05/24 09:24:58;;;;;;;;;2.50;1.75;;;;;22.71;67.70;100467.53;5089709;28;8764;-75
2022/05/24 09:27:26;;;;;;;;;2.75;1.75;;;;;22.68;66.56;100472.97;5089476;28;9336;-75
2022/05/24 09:30:02;;;;;;;;;3.00;2.25;;;;;22.62;66.38;100477.53;5089413;28;10214;-75
2022/05/24 09:32:48;;;;;;;;;0.67;0.33;;;;;22.63;64.86;100476.63;5090136;28;10258;-75
2022/05/24 09:35:16;;;;;;;;;1.00;1.00;;;;;22.64;63.90;100486.31;5088699;28;9350;-76
2022/05/24 09:38:03;;;;;;;;;3.00;1.00;;;;;22.65;63.90;100493.38;5089751;28;9186;-76
2022/05/24 09:40:48;;;;;;;;;1.50;1.50;;;;;22.64;64.18;100504.94;5089826;28;9336;-75
2022/05/24 09:43:25;;;;;;;;;2.25;2.25;;;;;22.60;65.35;100516.63;5084548;28;9547;-76
2022/05/24 09:46:01;;;;;;;;;3.50;3.00;;;;;22.56;64.64;100525.63;5068431;28;9437;-75
2022/05/24 09:48:30;;;;;;;;;3.00;2.00;;;;;22.54;64.87;100524.81;5068750;28;9532;-75
2022/05/24 09:50:58;;;;;;;;;4.00;4.00;;;;;22.52;65.06;100529.31;5068865;28;9651;-75
2022/05/24 09:53:27;;;;;;;;;6.25;3.00;;;;;22.51;64.56;100534.69;5069111;28;9562;-75
2022/05/24 09:55:59;;;;;;;;;3.75;3.00;;;;;22.48;64.17;100532.13;5066768;28;9719;-75
2022/05/24 09:58:37;;;;;;;;;3.00;1.25;;;;;22.49;63.98;100539.19;5069564;28;9705;-75
2022/05/24 10:01:07;;;;;;;;;2.00;1.00;;;;;22.49;62.98;100541.84;5069351;28;9398;-75
2022/05/24 10:03:50;;;;;;;;;4.00;2.75;;;;;22.48;62.78;100542.75;5070156;28;9515;-75
2022/05/24 10:06:28;;;;;;;;;4.75;1.25;;;;;22.47;61.88;100547.22;5072440;28;9573;-74
2022/05/24 10:08:57;;;;;;;;;4.00;4.00;;;;;22.50;61.97;100535.59;5073302;28;9415;-75
2022/05/24 10:11:34;;;;;;;;;1.00;1.00;;;;;22.49;60.83;100552.50;5073063;28;9489;-75
2022/05/24 10:14:22;;;;;;;;;2.75;2.75;;;;;22.50;59.42;100548.88;5080857;28;9625;-75
2022/05/24 10:17:02;;;;;;;;;3.25;1.00;;;;;22.50;59.59;100546.22;5071972;28;9506;-75
2022/05/24 10:19:53;;;;;;;;;1.00;1.00;;;;;22.51;57.69;100562.16;5072980;28;9425;-75
2022/05/24 10:23:02;;;;;;;;;2.00;1.75;;;;;22.51;57.63;100571.94;5075938;28;9539;-74
2022/05/24 10:25:51;;;;;;;;;1.00;1.00;;;;;22.49;58.50;100564.00;5071177;28;9336;-76
2022/05/24 10:28:55;;;;;;;;;1.75;1.00;;;;;22.48;58.78;100580.00;5072458;28;9251;-75
2022/05/24 10:31:49;;;;;;;;;2.00;2.00;;;;;22.45;59.28;100591.63;5067727;28;9316;-74
2022/05/24 10:40:41;;;;;;;;;1.00;1.00;;;;;22.62;53.65;100596.41;5072277;28;10056;-73
2022/05/24 10:43:21;;;;;;;;;1.00;1.00;;;;;22.38;52.57;100597.19;5072010;28;9489;-73
2022/05/24 10:45:58;;;;;;;;;2.50;2.50;;;;;22.29;54.16;100595.66;5069986;28;9478;-71
2022/05/24 10:48:35;;;;;;;;;0.00;0.00;;;;;22.19;52.14;100593.34;5072916;28;10202;-72
2022/05/24 10:51:29;;;;;;;;;1.00;1.00;;;;;22.11;50.14;100591.78;5072162;28;9328;-72
2022/05/24 10:54:16;;;;;;;;;1.67;0.33;;;;;22.20;51.89;100595.94;5071311;28;9384;-72
2022/05/24 10:56:52;;;;;;;;;2.00;1.00;;;;;22.21;50.87;100591.50;5070561;28;9276;-72
2022/05/24 10:59:23;;;;;;;;;0.00;0.00;;;;;22.18;48.88;100597.78;5071342;28;9361;-73
2022/05/24 11:02:00;;;;;;;;;1.67;0.00;;;;;22.06;49.33;100595.47;5072278;28;9249;-73
2022/05/24 11:04:58;;;;;;;;;0.00;0.00;;;;;22.22;49.43;100590.59;5072232;28;10072;-73
2022/05/24 11:07:27;;;;;;;;;1.67;1.00;;;;;22.21;51.18;100603.00;5044068;28;10055;-72
2022/05/24 11:10:14;;;;;;;;;0.33;0.33;;;;;22.25;48.87;100598.47;5076391;28;10116;-71
2022/05/24 11:12:51;;;;;;;;;0.00;0.00;;;;;22.23;50.26;100595.88;5074434;28;9348;-72
2022/05/24 11:15:32;;;;;;;;;1.00;1.00;;;;;22.15;48.47;100596.09;5071201;28;9277;-72
2022/05/24 11:18:01;;;;;;;;;0.00;0.00;;;;;22.10;48.17;100602.44;5071665;28;9367;-72
2022/05/24 11:20:36;;;;;;;;;0.00;0.00;;;;;22.10;48.89;100605.97;5071745;28;9334;-72
2022/05/24 11:23:11;;;;;;;;;0.00;0.00;;;;;22.11;49.04;100601.53;5090426;28;9269;-71
2022/05/24 11:25:43;;;;;;;;;0.00;0.00;;;;;22.12;48.16;100606.78;5094148;28;9405;-71
2022/05/24 11:28:19;;;;;;;;;0.00;0.00;;;;;22.16;47.90;100615.56;5090460;28;9270;-71
2022/05/24 11:30:46;;;;;;;;;0.00;0.00;;;;;22.14;46.89;100620.94;5091579;28;9385;-71
2022/05/24 11:33:16;;;;;;;;;0.00;0.00;;;;;22.16;47.66;100608.44;5091927;28;9283;-71
2022/05/24 11:35:52;;;;;;;;;0.00;0.00;;;;;22.13;45.85;100618.31;5090992;28;9272;-71
2022/05/24 11:38:20;;;;;;;;;0.00;0.00;;;;;22.16;46.11;100623.53;5091517;28;9344;-72
2022/05/24 11:40:54;;;;;;;;;0.00;0.00;;;;;22.26;47.33;100619.69;5090981;28;9467;-71
2022/05/24 11:43:44;;;;;;;;;0.00;0.00;;;;;22.31;47.22;100628.41;5091610;28;9314;-71
2022/05/24 11:46:44;;;;;;;;;0.00;0.00;;;;;22.32;46.35;100643.44;5091877;28;9310;-71
2022/05/24 11:49:10;;;;;;;;;0.00;0.00;;;;;22.38;46.43;100637.94;5076689;28;9354;-71
2022/05/24 11:51:46;;;;;;;;;0.00;0.00;;;;;22.30;46.46;100631.13;5092138;28;9094;-72
2022/05/24 11:54:12;;;;;;;;;1.33;0.67;;;;;22.38;46.50;100645.91;5092677;28;8794;-73
2022/05/24 11:56:38;;;;;;;;;1.00;0.00;;;;;22.42;46.16;100630.75;5091709;28;9382;-72
2022/05/24 11:59:11;;;;;;;;;0.00;0.00;;;;;22.54;45.65;100636.56;5091898;28;8811;-70
2022/05/24 12:01:44;;;;;;;;;0.00;0.00;;;;;22.60;45.62;100644.38;5091758;28;9432;-72
2022/05/24 12:10:20;;;;;;;;;0.00;0.00;;;;;22.98;45.21;100645.81;5086406;28;9307;-72
2022/05/24 12:12:49;;;;;;;;;0.33;0.33;;;;;22.97;45.29;100665.41;5063985;28;9247;-70
2022/05/24 12:15:23;;;;;;;;;0.33;0.33;;;;;23.16;45.42;100656.81;5089957;28;9403;-72
2022/05/24 12:18:11;;;;;;;;;0.00;0.00;;;;;23.09;46.61;100659.66;5089740;28;9277;-74
2022/05/24 12:20:37;;;;;;;;;0.00;0.00;;;;;23.13;45.64;100671.97;5072749;28;9395;-73
2022/05/24 12:23:14;;;;;;;;;1.67;1.00;;;;;23.22;46.99;100660.13;5090242;28;9491;-72
2022/05/24 12:26:01;;;;;;;;;1.00;0.00;;;;;23.00;45.01;100665.31;5089997;28;8842;-72